sensor_id;sensor_type;location;lat;lon;timestamp;P1;durP1;ratioP1;P2;durP2;ratioP2
4646;SDS011;2336;47.822;7.564;2024-01-07T00:01:59;4.23;;;4.00;;
4646;SDS011;2336;47.822;7.564;2024-01-07T00:04:26;5.20;;;4.90;;
4646;SDS011;2336;47.822;7.564;2024-01-07T00:06:53;4.20;;;4.03;;
4646;SDS011;2336;47.822;7.564;2024-01-07T00:09:19;5.00;;;4.70;;
4646;SDS011;2336;47.822;7.564;2024-01-07T00:11:46;6.53;;;6.00;;
4646;SDS011;2336;47.822;7.564;2024-01-07T00:14:14;6.30;;;5.80;;
4646;SDS011;2336;47.822;7.564;2024-01-07T00:16:42;4.37;;;4.17;;
4646;SDS011;2336;47.822;7.564;2024-01-07T00:19:10;4.70;;;4.50;;
4646;SDS011;2336;47.822;7.564;2024-01-07T00:21:37;4.87;;;4.57;;
4646;SDS011;2336;47.822;7.564;2024-01-07T00:24:03;4.30;;;4.03;;
4646;SDS011;2336;47.822;7.564;2024-01-07T00:26:30;5.17;;;4.77;;
4646;SDS011;2336;47.822;7.564;2024-01-07T00:28:57;4.40;;;4.10;;
4646;SDS011;2336;47.822;7.564;2024-01-07T00:31:24;2.90;;;2.80;;
4646;SDS011;2336;47.822;7.564;2024-01-07T00:33:51;7.13;;;5.63;;
4646;SDS011;2336;47.822;7.564;2024-01-07T00:36:19;5.13;;;4.73;;
4646;SDS011;2336;47.822;7.564;2024-01-07T00:38:46;3.33;;;3.13;;
4646;SDS011;2336;47.822;7.564;2024-01-07T00:41:13;5.10;;;4.57;;
4646;SDS011;2336;47.822;7.564;2024-01-07T00:43:40;11.50;;;6.97;;
4646;SDS011;2336;47.822;7.564;2024-01-07T00:46:06;4.00;;;3.80;;
4646;SDS011;2336;47.822;7.564;2024-01-07T00:48:33;3.67;;;3.53;;
4646;SDS011;2336;47.822;7.564;2024-01-07T00:53:53;3.00;;;2.90;;
4646;SDS011;2336;47.822;7.564;2024-01-07T00:56:20;3.00;;;2.90;;
4646;SDS011;2336;47.822;7.564;2024-01-07T00:58:46;5.10;;;4.70;;
4646;SDS011;2336;47.822;7.564;2024-01-07T01:01:13;3.00;;;2.90;;
4646;SDS011;2336;47.822;7.564;2024-01-07T01:03:40;2.60;;;2.50;;
4646;SDS011;2336;47.822;7.564;2024-01-07T01:06:07;2.80;;;2.70;;
4646;SDS011;2336;47.822;7.564;2024-01-07T01:08:35;5.17;;;4.77;;
4646;SDS011;2336;47.822;7.564;2024-01-07T01:11:02;3.20;;;3.10;;
4646;SDS011;2336;47.822;7.564;2024-01-07T01:13:28;3.10;;;3.00;;
4646;SDS011;2336;47.822;7.564;2024-01-07T01:15:55;3.33;;;3.13;;
4646;SDS011;2336;47.822;7.564;2024-01-07T01:18:22;5.20;;;4.90;;
4646;SDS011;2336;47.822;7.564;2024-01-07T01:20:49;5.30;;;5.00;;
4646;SDS011;2336;47.822;7.564;2024-01-07T01:23:15;6.30;;;5.90;;
4646;SDS011;2336;47.822;7.564;2024-01-07T01:25:43;10.47;;;9.57;;
4646;SDS011;2336;47.822;7.564;2024-01-07T01:28:10;8.17;;;7.40;;
4646;SDS011;2336;47.822;7.564;2024-01-07T01:30:37;6.17;;;5.50;;
4646;SDS011;2336;47.822;7.564;2024-01-07T01:33:04;5.87;;;5.47;;
4646;SDS011;2336;47.822;7.564;2024-01-07T01:35:31;8.63;;;6.70;;
4646;SDS011;2336;47.822;7.564;2024-01-07T01:37:57;7.40;;;6.80;;
4646;SDS011;2336;47.822;7.564;2024-01-07T01:40:24;5.70;;;5.30;;
4646;SDS011;2336;47.822;7.564;2024-01-07T01:42:53;6.30;;;5.83;;
4646;SDS011;2336;47.822;7.564;2024-01-07T01:45:19;9.30;;;8.30;;
4646;SDS011;2336;47.822;7.564;2024-01-07T01:47:46;6.50;;;5.87;;
4646;SDS011;2336;47.822;7.564;2024-01-07T01:50:14;31.60;;;22.17;;
4646;SDS011;2336;47.822;7.564;2024-01-07T01:52:42;12.83;;;9.40;;
4646;SDS011;2336;47.822;7.564;2024-01-07T01:55:09;13.83;;;9.87;;
4646;SDS011;2336;47.822;7.564;2024-01-07T01:57:36;32.80;;;14.70;;
4646;SDS011;2336;47.822;7.564;2024-01-07T02:00:07;53.60;;;23.90;;
4646;SDS011;2336;47.822;7.564;2024-01-07T02:02:34;49.50;;;18.20;;
4646;SDS011;2336;47.822;7.564;2024-01-07T02:05:01;16.47;;;13.00;;
4646;SDS011;2336;47.822;7.564;2024-01-07T02:07:28;53.37;;;23.40;;
4646;SDS011;2336;47.822;7.564;2024-01-07T02:09:55;61.10;;;20.17;;
4646;SDS011;2336;47.822;7.564;2024-01-07T02:12:22;41.43;;;18.17;;
4646;SDS011;2336;47.822;7.564;2024-01-07T02:14:49;45.63;;;18.40;;
4646;SDS011;2336;47.822;7.564;2024-01-07T02:17:17;34.03;;;15.20;;
4646;SDS011;2336;47.822;7.564;2024-01-07T02:19:45;73.67;;;22.27;;
4646;SDS011;2336;47.822;7.564;2024-01-07T02:22:11;47.43;;;17.37;;
4646;SDS011;2336;47.822;7.564;2024-01-07T02:24:39;36.57;;;16.97;;
4646;SDS011;2336;47.822;7.564;2024-01-07T02:27:06;49.87;;;18.37;;
4646;SDS011;2336;47.822;7.564;2024-01-07T02:29:33;75.63;;;22.13;;
4646;SDS011;2336;47.822;7.564;2024-01-07T02:32:00;45.93;;;17.17;;
4646;SDS011;2336;47.822;7.564;2024-01-07T02:34:26;33.77;;;15.50;;
4646;SDS011;2336;47.822;7.564;2024-01-07T02:36:53;50.60;;;15.50;;
4646;SDS011;2336;47.822;7.564;2024-01-07T02:39:20;43.67;;;16.27;;
4646;SDS011;2336;47.822;7.564;2024-01-07T02:41:48;35.17;;;14.27;;
4646;SDS011;2336;47.822;7.564;2024-01-07T02:44:15;33.37;;;14.97;;
4646;SDS011;2336;47.822;7.564;2024-01-07T02:46:42;22.43;;;11.57;;
4646;SDS011;2336;47.822;7.564;2024-01-07T02:49:11;42.17;;;17.70;;
4646;SDS011;2336;47.822;7.564;2024-01-07T02:51:38;33.20;;;17.07;;
4646;SDS011;2336;47.822;7.564;2024-01-07T02:54:04;32.43;;;15.13;;
4646;SDS011;2336;47.822;7.564;2024-01-07T02:56:31;43.43;;;18.40;;
4646;SDS011;2336;47.822;7.564;2024-01-07T02:58:59;38.13;;;20.53;;
4646;SDS011;2336;47.822;7.564;2024-01-07T03:01:26;33.77;;;16.83;;
4646;SDS011;2336;47.822;7.564;2024-01-07T03:03:53;46.87;;;19.00;;
4646;SDS011;2336;47.822;7.564;2024-01-07T03:06:20;41.20;;;17.87;;
4646;SDS011;2336;47.822;7.564;2024-01-07T03:08:47;36.60;;;15.27;;
4646;SDS011;2336;47.822;7.564;2024-01-07T03:11:14;33.33;;;15.90;;
4646;SDS011;2336;47.822;7.564;2024-01-07T03:13:41;33.73;;;15.37;;
4646;SDS011;2336;47.822;7.564;2024-01-07T03:16:18;35.00;;;16.23;;
4646;SDS011;2336;47.822;7.564;2024-01-07T03:18:46;34.63;;;15.73;;
4646;SDS011;2336;47.822;7.564;2024-01-07T03:21:16;18.50;;;11.97;;
4646;SDS011;2336;47.822;7.564;2024-01-07T03:23:43;32.17;;;15.50;;
4646;SDS011;2336;47.822;7.564;2024-01-07T03:26:10;57.00;;;20.00;;
4646;SDS011;2336;47.822;7.564;2024-01-07T03:28:37;14.00;;;8.53;;
4646;SDS011;2336;47.822;7.564;2024-01-07T03:31:04;32.40;;;14.27;;
4646;SDS011;2336;47.822;7.564;2024-01-07T03:33:33;27.50;;;13.10;;
4646;SDS011;2336;47.822;7.564;2024-01-07T03:35:59;29.60;;;12.80;;
4646;SDS011;2336;47.822;7.564;2024-01-07T03:38:26;47.10;;;23.50;;
4646;SDS011;2336;47.822;7.564;2024-01-07T03:40:53;49.07;;;15.90;;
4646;SDS011;2336;47.822;7.564;2024-01-07T03:43:20;31.37;;;13.63;;
4646;SDS011;2336;47.822;7.564;2024-01-07T03:45:46;20.87;;;11.00;;
4646;SDS011;2336;47.822;7.564;2024-01-07T03:48:14;24.63;;;11.87;;
4646;SDS011;2336;47.822;7.564;2024-01-07T03:50:42;41.43;;;21.57;;
4646;SDS011;2336;47.822;7.564;2024-01-07T03:53:09;37.93;;;17.37;;
4646;SDS011;2336;47.822;7.564;2024-01-07T03:55:36;38.87;;;22.50;;
4646;SDS011;2336;47.822;7.564;2024-01-07T03:58:03;16.83;;;12.53;;
4646;SDS011;2336;47.822;7.564;2024-01-07T04:00:30;25.13;;;11.53;;
4646;SDS011;2336;47.822;7.564;2024-01-07T04:02:57;32.13;;;13.40;;
4646;SDS011;2336;47.822;7.564;2024-01-07T04:05:24;27.50;;;12.73;;
4646;SDS011;2336;47.822;7.564;2024-01-07T04:07:52;16.73;;;9.43;;
4646;SDS011;2336;47.822;7.564;2024-01-07T04:10:19;28.27;;;10.87;;
4646;SDS011;2336;47.822;7.564;2024-01-07T04:12:46;29.47;;;16.93;;
4646;SDS011;2336;47.822;7.564;2024-01-07T04:15:13;14.00;;;9.10;;
4646;SDS011;2336;47.822;7.564;2024-01-07T04:17:39;31.33;;;13.33;;
4646;SDS011;2336;47.822;7.564;2024-01-07T04:20:07;25.27;;;12.70;;
4646;SDS011;2336;47.822;7.564;2024-01-07T04:22:34;42.90;;;18.30;;
4646;SDS011;2336;47.822;7.564;2024-01-07T04:25:03;15.87;;;10.17;;
4646;SDS011;2336;47.822;7.564;2024-01-07T04:27:33;31.37;;;14.77;;
4646;SDS011;2336;47.822;7.564;2024-01-07T04:29:59;26.37;;;12.27;;
4646;SDS011;2336;47.822;7.564;2024-01-07T04:32:26;30.65;;;14.65;;
4646;SDS011;2336;47.822;7.564;2024-01-07T04:34:53;50.87;;;17.50;;
4646;SDS011;2336;47.822;7.564;2024-01-07T04:37:21;65.23;;;31.93;;
4646;SDS011;2336;47.822;7.564;2024-01-07T04:39:48;38.13;;;25.50;;
4646;SDS011;2336;47.822;7.564;2024-01-07T04:42:16;17.53;;;11.63;;
4646;SDS011;2336;47.822;7.564;2024-01-07T04:44:43;29.80;;;13.33;;
4646;SDS011;2336;47.822;7.564;2024-01-07T04:47:23;17.97;;;10.77;;
4646;SDS011;2336;47.822;7.564;2024-01-07T04:49:51;50.77;;;20.63;;
4646;SDS011;2336;47.822;7.564;2024-01-07T04:52:18;13.93;;;10.53;;
4646;SDS011;2336;47.822;7.564;2024-01-07T04:54:45;46.30;;;22.20;;
4646;SDS011;2336;47.822;7.564;2024-01-07T04:57:12;34.63;;;17.23;;
4646;SDS011;2336;47.822;7.564;2024-01-07T04:59:40;27.57;;;12.90;;
4646;SDS011;2336;47.822;7.564;2024-01-07T05:02:07;42.97;;;18.27;;
4646;SDS011;2336;47.822;7.564;2024-01-07T05:04:35;35.63;;;14.07;;
4646;SDS011;2336;47.822;7.564;2024-01-07T05:07:02;26.03;;;12.17;;
4646;SDS011;2336;47.822;7.564;2024-01-07T05:09:29;32.57;;;14.90;;
4646;SDS011;2336;47.822;7.564;2024-01-07T05:11:57;28.40;;;14.40;;
4646;SDS011;2336;47.822;7.564;2024-01-07T05:14:23;64.87;;;41.23;;
4646;SDS011;2336;47.822;7.564;2024-01-07T05:16:52;36.17;;;15.57;;
4646;SDS011;2336;47.822;7.564;2024-01-07T05:19:19;59.33;;;30.20;;
4646;SDS011;2336;47.822;7.564;2024-01-07T05:21:46;58.03;;;30.07;;
4646;SDS011;2336;47.822;7.564;2024-01-07T05:24:13;41.00;;;20.13;;
4646;SDS011;2336;47.822;7.564;2024-01-07T05:26:40;19.77;;;11.33;;
4646;SDS011;2336;47.822;7.564;2024-01-07T05:29:08;27.47;;;13.27;;
4646;SDS011;2336;47.822;7.564;2024-01-07T05:31:35;32.50;;;15.77;;
4646;SDS011;2336;47.822;7.564;2024-01-07T05:34:03;24.40;;;12.23;;
4646;SDS011;2336;47.822;7.564;2024-01-07T05:36:29;24.77;;;15.47;;
4646;SDS011;2336;47.822;7.564;2024-01-07T05:38:56;35.93;;;17.40;;
4646;SDS011;2336;47.822;7.564;2024-01-07T05:41:23;13.50;;;9.57;;
4646;SDS011;2336;47.822;7.564;2024-01-07T05:43:50;21.83;;;12.63;;
4646;SDS011;2336;47.822;7.564;2024-01-07T05:46:16;32.30;;;19.27;;
4646;SDS011;2336;47.822;7.564;2024-01-07T05:48:44;20.67;;;13.73;;
4646;SDS011;2336;47.822;7.564;2024-01-07T05:51:13;37.77;;;21.90;;
4646;SDS011;2336;47.822;7.564;2024-01-07T05:53:40;30.43;;;17.50;;
4646;SDS011;2336;47.822;7.564;2024-01-07T05:56:07;20.90;;;12.50;;
4646;SDS011;2336;47.822;7.564;2024-01-07T05:58:34;37.90;;;19.80;;
4646;SDS011;2336;47.822;7.564;2024-01-07T06:01:00;17.43;;;11.47;;
4646;SDS011;2336;47.822;7.564;2024-01-07T06:03:27;27.37;;;12.80;;
4646;SDS011;2336;47.822;7.564;2024-01-07T06:05:54;23.00;;;12.67;;
4646;SDS011;2336;47.822;7.564;2024-01-07T06:08:22;25.20;;;13.40;;
4646;SDS011;2336;47.822;7.564;2024-01-07T06:10:49;35.90;;;16.63;;
4646;SDS011;2336;47.822;7.564;2024-01-07T06:13:16;34.73;;;17.30;;
4646;SDS011;2336;47.822;7.564;2024-01-07T06:15:43;20.73;;;11.83;;
4646;SDS011;2336;47.822;7.564;2024-01-07T06:18:10;38.83;;;26.73;;
4646;SDS011;2336;47.822;7.564;2024-01-07T06:20:37;27.17;;;16.10;;
4646;SDS011;2336;47.822;7.564;2024-01-07T06:23:04;31.23;;;17.70;;
4646;SDS011;2336;47.822;7.564;2024-01-07T06:25:32;43.30;;;18.77;;
4646;SDS011;2336;47.822;7.564;2024-01-07T06:27:59;39.90;;;24.03;;
4646;SDS011;2336;47.822;7.564;2024-01-07T06:30:26;37.50;;;17.00;;
4646;SDS011;2336;47.822;7.564;2024-01-07T06:32:52;30.10;;;13.33;;
4646;SDS011;2336;47.822;7.564;2024-01-07T06:35:19;26.10;;;16.37;;
4646;SDS011;2336;47.822;7.564;2024-01-07T06:37:46;50.67;;;20.03;;
4646;SDS011;2336;47.822;7.564;2024-01-07T06:40:13;38.80;;;16.53;;
4646;SDS011;2336;47.822;7.564;2024-01-07T06:42:41;50.30;;;21.77;;
4646;SDS011;2336;47.822;7.564;2024-01-07T06:45:09;28.23;;;14.10;;
4646;SDS011;2336;47.822;7.564;2024-01-07T06:47:35;48.33;;;17.53;;
4646;SDS011;2336;47.822;7.564;2024-01-07T06:50:03;22.83;;;10.77;;
4646;SDS011;2336;47.822;7.564;2024-01-07T06:52:30;66.60;;;29.83;;
4646;SDS011;2336;47.822;7.564;2024-01-07T06:54:57;21.10;;;12.40;;
4646;SDS011;2336;47.822;7.564;2024-01-07T06:57:24;29.60;;;14.80;;
4646;SDS011;2336;47.822;7.564;2024-01-07T06:59:52;32.83;;;14.63;;
4646;SDS011;2336;47.822;7.564;2024-01-07T07:02:19;32.37;;;14.90;;
4646;SDS011;2336;47.822;7.564;2024-01-07T07:04:46;28.73;;;11.97;;
4646;SDS011;2336;47.822;7.564;2024-01-07T07:07:15;32.60;;;14.00;;
4646;SDS011;2336;47.822;7.564;2024-01-07T07:09:42;42.30;;;17.25;;
4646;SDS011;2336;47.822;7.564;2024-01-07T07:12:10;59.83;;;23.40;;
4646;SDS011;2336;47.822;7.564;2024-01-07T07:14:38;41.17;;;17.87;;
4646;SDS011;2336;47.822;7.564;2024-01-07T07:17:06;37.53;;;16.57;;
4646;SDS011;2336;47.822;7.564;2024-01-07T07:19:33;77.83;;;23.57;;
4646;SDS011;2336;47.822;7.564;2024-01-07T07:22:00;44.87;;;17.60;;
4646;SDS011;2336;47.822;7.564;2024-01-07T07:24:26;45.10;;;16.47;;
4646;SDS011;2336;47.822;7.564;2024-01-07T07:26:53;59.33;;;21.27;;
4646;SDS011;2336;47.822;7.564;2024-01-07T07:29:20;57.57;;;19.50;;
4646;SDS011;2336;47.822;7.564;2024-01-07T07:31:47;49.83;;;23.00;;
4646;SDS011;2336;47.822;7.564;2024-01-07T07:34:15;46.40;;;19.27;;
4646;SDS011;2336;47.822;7.564;2024-01-07T07:36:42;39.40;;;17.40;;
4646;SDS011;2336;47.822;7.564;2024-01-07T07:39:10;42.57;;;15.10;;
4646;SDS011;2336;47.822;7.564;2024-01-07T07:41:38;39.40;;;15.07;;
4646;SDS011;2336;47.822;7.564;2024-01-07T07:44:05;57.93;;;18.13;;
4646;SDS011;2336;47.822;7.564;2024-01-07T07:46:32;56.33;;;15.60;;
4646;SDS011;2336;47.822;7.564;2024-01-07T07:48:58;39.53;;;14.70;;
4646;SDS011;2336;47.822;7.564;2024-01-07T07:51:27;51.50;;;15.30;;
4646;SDS011;2336;47.822;7.564;2024-01-07T07:53:55;40.50;;;13.17;;
4646;SDS011;2336;47.822;7.564;2024-01-07T07:56:22;28.13;;;11.83;;
4646;SDS011;2336;47.822;7.564;2024-01-07T07:58:48;51.53;;;19.20;;
4646;SDS011;2336;47.822;7.564;2024-01-07T08:01:16;24.97;;;12.10;;
4646;SDS011;2336;47.822;7.564;2024-01-07T08:03:43;47.90;;;19.17;;
4646;SDS011;2336;47.822;7.564;2024-01-07T08:06:10;61.63;;;31.40;;
4646;SDS011;2336;47.822;7.564;2024-01-07T08:08:38;38.80;;;15.33;;
4646;SDS011;2336;47.822;7.564;2024-01-07T08:11:05;52.77;;;18.67;;
4646;SDS011;2336;47.822;7.564;2024-01-07T08:13:34;75.70;;;25.00;;
4646;SDS011;2336;47.822;7.564;2024-01-07T08:16:01;64.40;;;19.27;;
4646;SDS011;2336;47.822;7.564;2024-01-07T08:18:29;50.83;;;18.30;;
4646;SDS011;2336;47.822;7.564;2024-01-07T08:20:56;88.43;;;22.80;;
4646;SDS011;2336;47.822;7.564;2024-01-07T08:23:23;69.70;;;23.17;;
4646;SDS011;2336;47.822;7.564;2024-01-07T08:25:51;66.97;;;21.80;;
4646;SDS011;2336;47.822;7.564;2024-01-07T08:28:18;51.73;;;18.93;;
4646;SDS011;2336;47.822;7.564;2024-01-07T08:30:45;66.17;;;23.50;;
4646;SDS011;2336;47.822;7.564;2024-01-07T08:33:12;94.90;;;39.27;;
4646;SDS011;2336;47.822;7.564;2024-01-07T08:35:39;51.30;;;21.93;;
4646;SDS011;2336;47.822;7.564;2024-01-07T08:38:06;24.27;;;15.63;;
4646;SDS011;2336;47.822;7.564;2024-01-07T08:40:33;69.33;;;26.67;;
4646;SDS011;2336;47.822;7.564;2024-01-07T08:43:01;40.87;;;16.03;;
4646;SDS011;2336;47.822;7.564;2024-01-07T08:45:28;90.57;;;29.83;;
4646;SDS011;2336;47.822;7.564;2024-01-07T08:47:55;72.63;;;24.87;;
4646;SDS011;2336;47.822;7.564;2024-01-07T08:50:21;67.77;;;24.57;;
4646;SDS011;2336;47.822;7.564;2024-01-07T08:52:48;56.60;;;19.57;;
4646;SDS011;2336;47.822;7.564;2024-01-07T08:55:15;48.50;;;19.30;;
4646;SDS011;2336;47.822;7.564;2024-01-07T08:57:42;71.80;;;27.73;;
4646;SDS011;2336;47.822;7.564;2024-01-07T09:00:12;69.03;;;24.30;;
4646;SDS011;2336;47.822;7.564;2024-01-07T09:02:39;51.67;;;19.77;;
4646;SDS011;2336;47.822;7.564;2024-01-07T09:05:06;63.20;;;23.53;;
4646;SDS011;2336;47.822;7.564;2024-01-07T09:07:33;49.60;;;19.53;;
4646;SDS011;2336;47.822;7.564;2024-01-07T09:10:00;73.97;;;21.70;;
4646;SDS011;2336;47.822;7.564;2024-01-07T09:12:27;33.23;;;16.07;;
4646;SDS011;2336;47.822;7.564;2024-01-07T09:14:54;38.20;;;16.80;;
4646;SDS011;2336;47.822;7.564;2024-01-07T09:17:22;42.97;;;18.63;;
4646;SDS011;2336;47.822;7.564;2024-01-07T09:19:49;36.00;;;17.50;;
4646;SDS011;2336;47.822;7.564;2024-01-07T09:22:15;63.83;;;20.03;;
4646;SDS011;2336;47.822;7.564;2024-01-07T09:24:42;52.03;;;19.93;;
4646;SDS011;2336;47.822;7.564;2024-01-07T09:27:09;58.27;;;21.00;;
4646;SDS011;2336;47.822;7.564;2024-01-07T09:29:36;36.77;;;16.40;;
4646;SDS011;2336;47.822;7.564;2024-01-07T09:32:03;33.87;;;16.20;;
4646;SDS011;2336;47.822;7.564;2024-01-07T09:34:31;45.10;;;18.20;;
4646;SDS011;2336;47.822;7.564;2024-01-07T09:36:58;57.07;;;20.70;;
4646;SDS011;2336;47.822;7.564;2024-01-07T09:39:25;44.70;;;20.00;;
4646;SDS011;2336;47.822;7.564;2024-01-07T09:41:53;61.07;;;20.80;;
4646;SDS011;2336;47.822;7.564;2024-01-07T09:44:20;61.73;;;22.10;;
4646;SDS011;2336;47.822;7.564;2024-01-07T09:46:47;56.80;;;18.03;;
4646;SDS011;2336;47.822;7.564;2024-01-07T09:49:16;54.17;;;19.90;;
4646;SDS011;2336;47.822;7.564;2024-01-07T09:51:45;47.33;;;18.20;;
4646;SDS011;2336;47.822;7.564;2024-01-07T09:54:12;75.30;;;22.30;;
4646;SDS011;2336;47.822;7.564;2024-01-07T09:56:42;84.17;;;26.20;;
4646;SDS011;2336;47.822;7.564;2024-01-07T09:59:15;79.97;;;24.30;;
4646;SDS011;2336;47.822;7.564;2024-01-07T10:01:43;90.30;;;22.47;;
4646;SDS011;2336;47.822;7.564;2024-01-07T10:04:10;60.77;;;20.77;;
4646;SDS011;2336;47.822;7.564;2024-01-07T10:06:37;57.70;;;23.60;;
4646;SDS011;2336;47.822;7.564;2024-01-07T10:09:06;64.47;;;23.50;;
4646;SDS011;2336;47.822;7.564;2024-01-07T10:11:33;51.97;;;21.37;;
4646;SDS011;2336;47.822;7.564;2024-01-07T10:14:00;76.57;;;25.97;;
4646;SDS011;2336;47.822;7.564;2024-01-07T10:16:27;64.00;;;27.10;;
4646;SDS011;2336;47.822;7.564;2024-01-07T10:18:54;83.77;;;25.53;;
4646;SDS011;2336;47.822;7.564;2024-01-07T10:21:22;50.57;;;21.17;;
4646;SDS011;2336;47.822;7.564;2024-01-07T10:23:49;31.00;;;16.77;;
4646;SDS011;2336;47.822;7.564;2024-01-07T10:26:17;74.10;;;24.50;;
4646;SDS011;2336;47.822;7.564;2024-01-07T10:28:45;90.27;;;30.90;;
4646;SDS011;2336;47.822;7.564;2024-01-07T10:31:12;66.70;;;23.90;;
4646;SDS011;2336;47.822;7.564;2024-01-07T10:33:39;105.80;;;33.80;;
4646;SDS011;2336;47.822;7.564;2024-01-07T10:36:07;67.43;;;23.60;;
4646;SDS011;2336;47.822;7.564;2024-01-07T10:38:34;73.57;;;26.10;;
4646;SDS011;2336;47.822;7.564;2024-01-07T10:41:01;49.03;;;21.40;;
4646;SDS011;2336;47.822;7.564;2024-01-07T10:43:32;75.20;;;24.40;;
4646;SDS011;2336;47.822;7.564;2024-01-07T10:46:02;46.37;;;21.90;;
4646;SDS011;2336;47.822;7.564;2024-01-07T10:48:30;73.90;;;25.70;;
4646;SDS011;2336;47.822;7.564;2024-01-07T10:50:59;38.23;;;18.30;;
4646;SDS011;2336;47.822;7.564;2024-01-07T10:53:27;46.03;;;21.27;;
4646;SDS011;2336;47.822;7.564;2024-01-07T10:55:59;47.23;;;21.93;;
4646;SDS011;2336;47.822;7.564;2024-01-07T10:58:31;48.57;;;21.50;;
4646;SDS011;2336;47.822;7.564;2024-01-07T11:00:59;57.43;;;22.60;;
4646;SDS011;2336;47.822;7.564;2024-01-07T11:03:31;41.63;;;20.27;;
4646;SDS011;2336;47.822;7.564;2024-01-07T11:06:06;52.10;;;20.63;;
4646;SDS011;2336;47.822;7.564;2024-01-07T11:08:39;64.80;;;23.73;;
4646;SDS011;2336;47.822;7.564;2024-01-07T11:11:13;35.40;;;18.63;;
4646;SDS011;2336;47.822;7.564;2024-01-07T11:13:44;45.40;;;18.10;;
4646;SDS011;2336;47.822;7.564;2024-01-07T11:16:10;54.57;;;21.80;;
4646;SDS011;2336;47.822;7.564;2024-01-07T11:18:38;41.03;;;20.67;;
4646;SDS011;2336;47.822;7.564;2024-01-07T11:21:05;47.23;;;21.57;;
4646;SDS011;2336;47.822;7.564;2024-01-07T11:23:32;41.10;;;20.90;;
4646;SDS011;2336;47.822;7.564;2024-01-07T11:26:02;54.80;;;22.23;;
4646;SDS011;2336;47.822;7.564;2024-01-07T11:28:49;45.63;;;19.53;;
4646;SDS011;2336;47.822;7.564;2024-01-07T11:31:17;44.00;;;19.97;;
4646;SDS011;2336;47.822;7.564;2024-01-07T11:33:46;34.13;;;17.67;;
4646;SDS011;2336;47.822;7.564;2024-01-07T11:36:14;27.70;;;14.60;;
4646;SDS011;2336;47.822;7.564;2024-01-07T11:38:42;40.20;;;18.90;;
4646;SDS011;2336;47.822;7.564;2024-01-07T11:41:09;38.00;;;18.97;;
4646;SDS011;2336;47.822;7.564;2024-01-07T11:43:51;35.83;;;19.03;;
4646;SDS011;2336;47.822;7.564;2024-01-07T11:46:18;45.53;;;21.80;;
4646;SDS011;2336;47.822;7.564;2024-01-07T11:48:45;33.30;;;16.63;;
4646;SDS011;2336;47.822;7.564;2024-01-07T11:51:13;62.20;;;23.37;;
4646;SDS011;2336;47.822;7.564;2024-01-07T11:53:41;40.00;;;19.23;;
4646;SDS011;2336;47.822;7.564;2024-01-07T11:56:08;47.10;;;21.57;;
4646;SDS011;2336;47.822;7.564;2024-01-07T11:58:35;52.00;;;23.90;;
4646;SDS011;2336;47.822;7.564;2024-01-07T12:01:03;33.67;;;18.37;;
4646;SDS011;2336;47.822;7.564;2024-01-07T12:03:30;43.97;;;19.43;;
4646;SDS011;2336;47.822;7.564;2024-01-07T12:05:57;63.80;;;23.27;;
4646;SDS011;2336;47.822;7.564;2024-01-07T12:08:24;36.67;;;18.50;;
4646;SDS011;2336;47.822;7.564;2024-01-07T12:10:51;42.50;;;21.10;;
4646;SDS011;2336;47.822;7.564;2024-01-07T12:13:18;57.87;;;22.63;;
4646;SDS011;2336;47.822;7.564;2024-01-07T12:15:45;32.90;;;20.40;;
4646;SDS011;2336;47.822;7.564;2024-01-07T12:18:14;40.03;;;21.53;;
4646;SDS011;2336;47.822;7.564;2024-01-07T12:20:41;52.57;;;22.87;;
4646;SDS011;2336;47.822;7.564;2024-01-07T12:23:08;40.43;;;22.50;;
4646;SDS011;2336;47.822;7.564;2024-01-07T12:25:35;41.47;;;22.20;;
4646;SDS011;2336;47.822;7.564;2024-01-07T12:28:02;37.17;;;22.60;;
4646;SDS011;2336;47.822;7.564;2024-01-07T12:30:32;27.50;;;18.43;;
4646;SDS011;2336;47.822;7.564;2024-01-07T12:32:59;37.07;;;21.43;;
4646;SDS011;2336;47.822;7.564;2024-01-07T12:35:27;37.47;;;20.70;;
4646;SDS011;2336;47.822;7.564;2024-01-07T12:37:55;46.40;;;23.33;;
4646;SDS011;2336;47.822;7.564;2024-01-07T12:40:22;39.93;;;23.90;;
4646;SDS011;2336;47.822;7.564;2024-01-07T12:42:49;51.30;;;24.17;;
4646;SDS011;2336;47.822;7.564;2024-01-07T12:45:16;38.07;;;21.50;;
4646;SDS011;2336;47.822;7.564;2024-01-07T12:47:43;35.00;;;20.90;;
4646;SDS011;2336;47.822;7.564;2024-01-07T12:50:10;32.63;;;19.70;;
4646;SDS011;2336;47.822;7.564;2024-01-07T12:52:39;36.90;;;21.90;;
4646;SDS011;2336;47.822;7.564;2024-01-07T12:55:06;40.87;;;22.30;;
4646;SDS011;2336;47.822;7.564;2024-01-07T12:57:33;24.30;;;19.07;;
4646;SDS011;2336;47.822;7.564;2024-01-07T13:00:01;34.53;;;20.50;;
4646;SDS011;2336;47.822;7.564;2024-01-07T13:02:31;33.10;;;20.77;;
4646;SDS011;2336;47.822;7.564;2024-01-07T13:04:58;26.30;;;19.40;;
4646;SDS011;2336;47.822;7.564;2024-01-07T13:07:24;43.40;;;23.03;;
4646;SDS011;2336;47.822;7.564;2024-01-07T13:09:53;35.57;;;21.87;;
4646;SDS011;2336;47.822;7.564;2024-01-07T13:12:19;33.60;;;20.10;;
4646;SDS011;2336;47.822;7.564;2024-01-07T13:14:46;30.27;;;19.83;;
4646;SDS011;2336;47.822;7.564;2024-01-07T13:17:13;27.40;;;18.83;;
4646;SDS011;2336;47.822;7.564;2024-01-07T13:19:40;24.20;;;16.40;;
4646;SDS011;2336;47.822;7.564;2024-01-07T13:22:07;31.90;;;20.53;;
4646;SDS011;2336;47.822;7.564;2024-01-07T13:24:35;28.20;;;19.30;;
4646;SDS011;2336;47.822;7.564;2024-01-07T13:27:03;24.07;;;17.80;;
4646;SDS011;2336;47.822;7.564;2024-01-07T13:29:30;21.37;;;16.67;;
4646;SDS011;2336;47.822;7.564;2024-01-07T13:31:57;27.73;;;19.00;;
4646;SDS011;2336;47.822;7.564;2024-01-07T13:34:24;24.17;;;17.90;;
4646;SDS011;2336;47.822;7.564;2024-01-07T13:36:50;31.00;;;20.20;;
4646;SDS011;2336;47.822;7.564;2024-01-07T13:39:17;27.67;;;18.93;;
4646;SDS011;2336;47.822;7.564;2024-01-07T13:41:46;24.90;;;19.00;;
4646;SDS011;2336;47.822;7.564;2024-01-07T13:44:14;21.20;;;17.10;;
4646;SDS011;2336;47.822;7.564;2024-01-07T13:46:43;34.63;;;20.97;;
4646;SDS011;2336;47.822;7.564;2024-01-07T13:49:11;27.50;;;19.67;;
4646;SDS011;2336;47.822;7.564;2024-01-07T13:51:38;28.83;;;20.03;;
4646;SDS011;2336;47.822;7.564;2024-01-07T13:54:05;23.63;;;17.90;;
4646;SDS011;2336;47.822;7.564;2024-01-07T13:56:32;23.20;;;17.67;;
4646;SDS011;2336;47.822;7.564;2024-01-07T13:59:00;31.27;;;20.60;;
4646;SDS011;2336;47.822;7.564;2024-01-07T14:01:29;26.73;;;19.63;;
4646;SDS011;2336;47.822;7.564;2024-01-07T14:03:57;26.47;;;20.20;;
4646;SDS011;2336;47.822;7.564;2024-01-07T14:06:24;24.47;;;17.53;;
4646;SDS011;2336;47.822;7.564;2024-01-07T14:08:51;20.80;;;16.80;;
4646;SDS011;2336;47.822;7.564;2024-01-07T14:11:18;19.10;;;14.93;;
4646;SDS011;2336;47.822;7.564;2024-01-07T14:13:45;20.20;;;15.97;;
4646;SDS011;2336;47.822;7.564;2024-01-07T14:16:12;14.80;;;12.80;;
4646;SDS011;2336;47.822;7.564;2024-01-07T14:18:40;15.30;;;13.70;;
4646;SDS011;2336;47.822;7.564;2024-01-07T14:21:07;13.07;;;11.70;;
4646;SDS011;2336;47.822;7.564;2024-01-07T14:23:35;12.27;;;11.07;;
4646;SDS011;2336;47.822;7.564;2024-01-07T14:26:02;12.67;;;11.27;;
4646;SDS011;2336;47.822;7.564;2024-01-07T14:28:29;12.03;;;11.03;;
4646;SDS011;2336;47.822;7.564;2024-01-07T14:30:56;11.13;;;10.03;;
4646;SDS011;2336;47.822;7.564;2024-01-07T14:33:24;12.00;;;10.90;;
4646;SDS011;2336;47.822;7.564;2024-01-07T14:35:52;12.70;;;11.40;;
4646;SDS011;2336;47.822;7.564;2024-01-07T14:38:19;11.30;;;10.20;;
4646;SDS011;2336;47.822;7.564;2024-01-07T14:40:45;10.87;;;9.83;;
4646;SDS011;2336;47.822;7.564;2024-01-07T14:43:12;11.43;;;9.60;;
4646;SDS011;2336;47.822;7.564;2024-01-07T14:45:41;11.10;;;10.00;;
4646;SDS011;2336;47.822;7.564;2024-01-07T14:48:09;13.00;;;11.23;;
4646;SDS011;2336;47.822;7.564;2024-01-07T14:50:36;11.23;;;10.23;;
4646;SDS011;2336;47.822;7.564;2024-01-07T14:53:04;10.60;;;9.50;;
4646;SDS011;2336;47.822;7.564;2024-01-07T14:55:31;9.23;;;8.43;;